»·PEaware :: N5656Y KAJO-KVCV

N5656Y :: KAJO-KVCV

FLIGHT INFORMATION

Flight Status: Arrived
Operator: Privately registered:
United States
More flights under this callsign
Pilot: Anonymous 20359 (20359)
Aircraft: CESSNA 172 SKYHAWK
(C172)
More flights by this aircraft type
Origin: KAJO Corona Mun
United States
Destination: KVCV Socal Logistics
United States
More flights between these airports :: More routes between these airports
Route: PDZ V442 APLES
File this flight plan on PilotEdge
Remarks:
Altitude:
(Current/Filed)
9,000ft
Speed:
(Current/Filed)
120kts
Departed: 10-Oct-18 08:21 AM
Arrived: 10-Oct-18 09:31 AM
Distance/Time
Traveled:
43nm/1:10
Distance/Time
To Go:
Arrived

Flight Plot

Page will automatically refresh every two minutes.


Map Options




Map Legend


Flown Route
Filed Route
Departure Airport
Arrival Airport
Navaid (VOR, NDB)
Fix

Horizontal Profiles

Position Reports

Time Latitude Longitude Heading Altitude Ground
Speed
10-Oct-18 08:18 33.896978 -117.607296 180 537ft 0kts
10-Oct-18 08:19 33.896978 -117.607296 180 537ft 0kts
10-Oct-18 08:20 33.896978 -117.607296 180 537ft 0kts
10-Oct-18 08:21 33.896978 -117.607296 180 537ft 0kts
10-Oct-18 08:22 33.897642 -117.607238 81 537ft 0kts
10-Oct-18 08:23 33.898035 -117.594684 85 742ft 90kts
10-Oct-18 08:24 33.909609 -117.571099 19 1741ft 92kts
10-Oct-18 08:25 33.917119 -117.546348 95 2727ft 89kts
10-Oct-18 08:26 33.926660 -117.518138 34 3870ft 84kts
10-Oct-18 08:27 33.942277 -117.504423 16 4616ft 84kts
10-Oct-18 08:28 33.947443 -117.521221 199 5503ft 79kts
10-Oct-18 08:29 33.926744 -117.518662 199 6302ft 80kts
10-Oct-18 08:30 33.921831 -117.539737 330 6988ft 88kts
10-Oct-18 08:31 33.945491 -117.523800 41 7798ft 89kts
10-Oct-18 08:32 33.938815 -117.505213 196 8472ft 86kts
10-Oct-18 08:33 33.924018 -117.520806 219 8983ft 89kts
10-Oct-18 08:34 33.928632 -117.547359 346 9093ft 119kts
10-Oct-18 08:35 33.954244 -117.523799 58 9095ft 124kts
10-Oct-18 08:36 33.978262 -117.494890 30 9096ft 124kts
10-Oct-18 08:37 34.008835 -117.475348 25 9095ft 124kts
10-Oct-18 08:38 34.039862 -117.456658 25 9095ft 124kts
10-Oct-18 08:39 34.070752 -117.438099 25 9095ft 124kts
10-Oct-18 08:40 34.101568 -117.419569 25 9095ft 124kts
10-Oct-18 08:41 34.132158 -117.401162 25 9095ft 124kts
10-Oct-18 08:42 34.163088 -117.382532 25 9095ft 124kts
10-Oct-18 08:43 34.194133 -117.363818 25 9095ft 124kts
10-Oct-18 08:44 34.224684 -117.345388 26 9095ft 124kts
10-Oct-18 08:45 34.255661 -117.326680 26 9095ft 124kts
10-Oct-18 08:46 34.286674 -117.307943 26 9095ft 125kts
10-Oct-18 08:47 34.317395 -117.289362 26 9095ft 125kts
10-Oct-18 08:48 34.348486 -117.270544 26 9095ft 125kts
10-Oct-18 08:49 34.379606 -117.251697 26 9095ft 125kts
10-Oct-18 08:50 34.410834 -117.232767 26 9095ft 125kts
10-Oct-18 08:51 34.442033 -117.213838 26 9095ft 125kts
10-Oct-18 08:52 34.473146 -117.194944 26 9095ft 125kts
10-Oct-18 08:53 34.504341 -117.175984 26 9095ft 125kts
10-Oct-18 08:54 34.535451 -117.156852 27 9095ft 125kts
10-Oct-18 08:55 34.568593 -117.142236 0 8870ft 136kts
10-Oct-18 08:56 34.615405 -117.146028 355 7338ft 143kts
10-Oct-18 08:57 34.646010 -117.154944 343 6667ft 122kts
10-Oct-18 08:58 34.679355 -117.166036 343 6721ft 127kts
10-Oct-18 08:59 34.711573 -117.183457 328 6721ft 127kts
10-Oct-18 09:00 34.738676 -117.211285 312 6721ft 127kts
10-Oct-18 09:01 34.759752 -117.245912 305 6720ft 128kts
10-Oct-18 09:02 34.778828 -117.282383 295 6721ft 128kts
10-Oct-18 09:03 34.789861 -117.325067 278 5202ft 131kts
10-Oct-18 09:04 34.773880 -117.346023 202 5184ft 110kts
10-Oct-18 09:05 34.744009 -117.366578 218 4687ft 129kts
10-Oct-18 09:06 34.711548 -117.379700 188 4428ft 117kts
10-Oct-18 09:07 34.678695 -117.383115 181 4205ft 126kts
10-Oct-18 09:08 34.646191 -117.383251 182 3259ft 104kts
10-Oct-18 09:09 34.620546 -117.386933 179 3414ft 98kts
10-Oct-18 09:10 34.591302 -117.385787 177 4020ft 108kts
10-Oct-18 09:11 34.566771 -117.397044 267 4584ft 110kts
10-Oct-18 09:12 34.590126 -117.413136 346 5163ft 108kts
10-Oct-18 09:13 34.607024 -117.438362 266 5769ft 106kts
10-Oct-18 09:14 34.605992 -117.474352 278 6160ft 123kts
10-Oct-18 09:15 34.616003 -117.515779 292 6112ft 128kts
10-Oct-18 09:16 34.638853 -117.541601 11 6109ft 128kts
10-Oct-18 09:17 34.670379 -117.524066 64 5946ft 139kts
10-Oct-18 09:18 34.674347 -117.480354 102 4939ft 129kts
10-Oct-18 09:19 34.644233 -117.467959 179 4210ft 123kts
10-Oct-18 09:20 34.608723 -117.468069 180 4218ft 129kts
10-Oct-18 09:21 34.572432 -117.455709 77 3621ft 145kts
10-Oct-18 09:22 34.591005 -117.427770 67 3379ft 129kts
10-Oct-18 09:23 34.598244 -117.389688 48 3580ft 104kts
10-Oct-18 09:24 34.623532 -117.369021 1 3733ft 121kts
10-Oct-18 09:25 34.651272 -117.379366 265 4118ft 113kts
10-Oct-18 09:26 34.648712 -117.420731 273 4228ft 124kts
10-Oct-18 09:27 34.623230 -117.437245 184 4426ft 130kts
10-Oct-18 09:28 34.589661 -117.442821 127 3761ft 147kts
10-Oct-18 09:29 34.597640 -117.400957 43 3360ft 120kts
10-Oct-18 09:30 34.623770 -117.373902 32 3502ft 118kts
10-Oct-18 09:31 34.611958 -117.356545 193 3414ft 74kts
10-Oct-18 09:32 34.597628 -117.370024 217 2850ft 41kts
10-Oct-18 09:33 34.594388 -117.372716 181 2858ft 0kts
10-Oct-18 09:34 34.594388 -117.372716 181 2858ft 0kts
10-Oct-18 09:35 34.592075 -117.373655 216 2864ft 43kts
10-Oct-18 09:36 34.588123 -117.376310 196 2871ft 0kts
10-Oct-18 09:37 34.588123 -117.376310 196 2871ft 0kts

Navigation Log

Ident Type
1. KAJO Airport
2. PDZ Navaid
3. APLES Fix
4. KVCV Airport